Time;durP1;ratioP1;P1;durP2;ratioP2;P2;SDS_P1;SDS_P2;PMS_P1;PMS_P2;Temp;Humidity;BMP_temperature;BMP_pressure;BME280_temperature;BME280_humidity;BME280_pressure;Samples;Min_cycle;Max_cycle;Signal;HPM_P1;HPM_P2
2022/09/10 00:02:21;;;;;;;8.80;4.57;;;15.80;99.90;;;;;;5072647;28;20682;-61
2022/09/10 00:04:50;;;;;;;12.67;4.60;;;15.80;99.90;;;;;;5072494;28;20189;-61
2022/09/10 00:07:18;;;;;;;12.00;4.80;;;15.80;99.90;;;;;;5072142;28;20205;-61
2022/09/10 00:09:46;;;;;;;14.10;4.63;;;15.80;99.90;;;;;;5056231;28;20313;-61
2022/09/10 00:12:16;;;;;;;15.10;5.27;;;15.80;99.90;;;;;;5075195;28;20197;-61
2022/09/10 00:14:47;;;;;;;12.70;5.20;;;15.80;99.90;;;;;;5076641;28;20250;-61
2022/09/10 00:17:15;;;;;;;11.87;5.20;;;15.90;99.90;;;;;;5076514;28;20189;-61
2022/09/10 00:19:43;;;;;;;13.67;4.90;;;15.90;99.90;;;;;;5076158;28;20198;-61
2022/09/10 00:22:12;;;;;;;11.73;4.93;;;15.90;99.90;;;;;;5076254;28;20370;-61
2022/09/10 00:24:41;;;;;;;10.43;4.83;;;15.80;99.90;;;;;;5076203;28;20639;-61
2022/09/10 00:27:09;;;;;;;10.17;5.00;;;15.90;99.90;;;;;;5075993;28;20220;-61
2022/09/10 00:29:39;;;;;;;14.57;5.50;;;15.90;99.90;;;;;;5074758;28;20232;-61
2022/09/10 00:32:07;;;;;;;13.97;6.27;;;15.80;99.90;;;;;;5076162;28;20193;-61
2022/09/10 00:34:35;;;;;;;17.60;6.83;;;15.80;99.90;;;;;;5056030;28;20559;-61
2022/09/10 00:37:06;;;;;;;18.40;7.60;;;15.80;99.90;;;;;;5073454;28;20196;-61
2022/09/10 00:39:34;;;;;;;17.80;8.67;;;15.80;99.90;;;;;;5069859;28;20200;-61
2022/09/10 00:42:03;;;;;;;23.90;9.13;;;15.80;99.90;;;;;;5057652;28;20592;-61
2022/09/10 00:44:59;;;;;;;15.10;8.83;;;15.80;99.90;;;;;;5071294;28;20201;-61
2022/09/10 00:47:33;;;;;;;19.33;9.30;;;15.80;99.90;;;;;;5067618;28;20540;-61
2022/09/10 00:50:12;;;;;;;21.17;10.10;;;15.70;99.90;;;;;;5055458;28;20205;-61
2022/09/10 00:52:41;;;;;;;25.73;9.53;;;15.70;99.90;;;;;;5069972;28;20203;-61
2022/09/10 00:55:12;;;;;;;16.97;10.33;;;15.70;99.90;;;;;;5078321;28;20555;-61
2022/09/10 00:57:41;;;;;;;18.50;10.30;;;15.70;99.90;;;;;;5066627;28;20199;-61
2022/09/10 01:00:13;;;;;;;18.53;10.53;;;15.70;99.90;;;;;;5058006;28;20195;-61
2022/09/10 01:02:43;;;;;;;18.20;10.23;;;15.70;99.90;;;;;;5072255;28;20270;-61
2022/09/10 01:05:14;;;;;;;19.43;10.87;;;15.70;99.90;;;;;;5073391;28;20203;-61
2022/09/10 01:08:04;;;;;;;21.67;10.40;;;15.70;99.90;;;;;;5075380;28;20209;-61
2022/09/10 01:10:41;;;;;;;21.03;10.47;;;15.70;99.90;;;;;;5074862;28;20229;-61
2022/09/10 01:13:34;;;;;;;22.03;11.57;;;15.70;99.90;;;;;;5075713;28;20532;-61
2022/09/10 01:16:17;;;;;;;18.27;10.80;;;15.60;99.90;;;;;;5055120;28;20197;-61
2022/09/10 01:18:56;;;;;;;20.17;10.57;;;15.70;99.90;;;;;;5069466;28;20247;-61
2022/09/10 01:21:32;;;;;;;24.37;11.00;;;15.70;99.90;;;;;;5067150;28;20219;-61
2022/09/10 01:24:40;;;;;;;21.20;10.97;;;15.70;99.90;;;;;;5071622;28;20195;-61
2022/09/10 01:27:40;;;;;;;23.47;10.60;;;15.70;99.90;;;;;;5065157;28;20196;-61
2022/09/10 01:30:16;;;;;;;19.90;10.17;;;15.70;99.90;;;;;;5071242;28;20201;-61
2022/09/10 01:32:54;;;;;;;18.17;10.23;;;15.70;99.90;;;;;;5074355;28;20234;-61
2022/09/10 01:35:27;;;;;;;16.43;10.70;;;15.80;99.90;;;;;;5070174;28;20200;-61
2022/09/10 01:37:59;;;;;;;23.67;10.40;;;15.80;99.90;;;;;;5071247;28;20207;-61
2022/09/10 01:40:29;;;;;;;19.03;9.60;;;15.90;99.90;;;;;;5076792;28;20197;-61
2022/09/10 01:43:01;;;;;;;19.17;9.77;;;15.90;99.90;;;;;;5070547;28;20193;-61
2022/09/10 01:45:32;;;;;;;23.53;10.87;;;15.90;99.90;;;;;;5074321;28;20192;-61
2022/09/10 01:48:25;;;;;;;23.60;9.97;;;15.90;99.90;;;;;;5055604;28;20216;-61
2022/09/10 01:51:03;;;;;;;22.53;10.10;;;15.90;99.90;;;;;;5073049;28;20201;-61
2022/09/10 01:53:42;;;;;;;20.60;9.93;;;15.90;99.90;;;;;;5068120;28;20770;-61
2022/09/10 01:56:25;;;;;;;16.20;9.73;;;15.90;99.90;;;;;;5083625;28;20263;-61
2022/09/10 01:59:02;;;;;;;18.03;10.10;;;15.90;99.90;;;;;;5063355;28;20200;-61
2022/09/10 02:01:36;;;;;;;19.37;10.00;;;15.90;99.90;;;;;;5066149;28;20202;-61
2022/09/10 02:04:08;;;;;;;18.43;10.43;;;15.90;99.90;;;;;;5074586;28;20187;-61
2022/09/10 02:06:41;;;;;;;15.53;8.90;;;15.90;99.90;;;;;;5072514;28;20204;-61
2022/09/10 02:09:12;;;;;;;18.53;9.70;;;15.90;99.90;;;;;;5073424;28;20240;-61
2022/09/10 02:11:46;;;;;;;16.00;8.93;;;15.90;99.90;;;;;;5060734;28;20198;-61
2022/09/10 02:14:16;;;;;;;15.90;8.60;;;15.90;99.90;;;;;;5058060;28;20201;-61
2022/09/10 02:16:51;;;;;;;18.30;8.57;;;15.90;99.90;;;;;;5072229;28;20200;-61
2022/09/10 02:19:20;;;;;;;18.00;8.53;;;15.90;99.90;;;;;;5085822;28;20189;-61
2022/09/10 02:21:48;;;;;;;16.13;9.07;;;15.90;99.90;;;;;;5060522;28;20203;-61
2022/09/10 02:24:17;;;;;;;15.80;9.00;;;15.90;99.90;;;;;;5067928;28;20204;-61
2022/09/10 02:26:46;;;;;;;21.57;9.90;;;15.80;99.90;;;;;;5066612;28;20226;-61
2022/09/10 02:29:16;;;;;;;14.47;8.50;;;15.80;99.90;;;;;;5073213;28;20610;-61
2022/09/10 02:31:46;;;;;;;18.70;9.10;;;15.80;99.90;;;;;;5066248;28;20212;-61
2022/09/10 02:34:15;;;;;;;17.27;9.13;;;15.80;99.90;;;;;;5069909;28;20248;-61
2022/09/10 02:36:43;;;;;;;20.67;9.70;;;15.80;99.90;;;;;;5073508;28;20281;-61
2022/09/10 02:39:12;;;;;;;15.73;8.73;;;15.70;99.90;;;;;;5066315;28;20190;-61
2022/09/10 02:41:40;;;;;;;22.47;9.20;;;15.70;99.90;;;;;;5071597;28;20208;-61
2022/09/10 02:44:09;;;;;;;14.57;9.07;;;15.60;99.90;;;;;;5071739;28;20193;-61
2022/09/10 02:46:38;;;;;;;21.93;9.70;;;15.60;99.90;;;;;;5053449;28;20197;-61
2022/09/10 02:49:09;;;;;;;16.83;10.07;;;15.60;99.90;;;;;;5069109;28;20289;-61
2022/09/10 02:51:41;;;;;;;16.83;10.87;;;15.50;99.90;;;;;;5069187;28;20195;-61
2022/09/10 02:54:09;;;;;;;16.17;10.63;;;15.50;99.90;;;;;;5081424;28;20202;-61
2022/09/10 02:56:37;;;;;;;20.77;10.37;;;15.50;99.90;;;;;;5074879;28;20579;-61
2022/09/10 02:59:06;;;;;;;21.13;11.40;;;15.50;99.90;;;;;;5072863;28;20196;-61
2022/09/10 03:01:35;;;;;;;23.17;10.80;;;15.60;99.90;;;;;;5069346;28;20539;-61
2022/09/10 03:04:05;;;;;;;29.73;12.20;;;15.60;99.90;;;;;;5069826;28;20279;-61
2022/09/10 03:06:33;;;;;;;22.27;11.63;;;15.50;99.90;;;;;;5063470;28;20200;-61
2022/09/10 03:09:01;;;;;;;24.47;11.53;;;15.60;99.90;;;;;;5063617;28;20204;-61
2022/09/10 03:11:30;;;;;;;21.27;11.77;;;15.60;99.90;;;;;;5071728;28;20540;-61
2022/09/10 03:13:59;;;;;;;27.97;12.30;;;15.60;99.90;;;;;;5058668;28;20258;-61
2022/09/10 03:16:27;;;;;;;21.30;11.50;;;15.60;99.90;;;;;;5067717;28;20203;-61
2022/09/10 03:18:55;;;;;;;23.43;12.10;;;15.60;99.90;;;;;;5055912;28;20189;-61
2022/09/10 03:21:25;;;;;;;25.00;11.87;;;15.50;99.90;;;;;;5066376;28;20208;-61
2022/09/10 03:23:56;;;;;;;20.27;12.70;;;15.50;99.90;;;;;;5069747;28;20212;-60
2022/09/10 03:26:25;;;;;;;23.70;13.33;;;15.60;99.90;;;;;;5068252;28;20201;-61
2022/09/10 03:28:56;;;;;;;18.50;12.47;;;15.60;99.90;;;;;;5071673;28;20225;-61
2022/09/10 03:31:25;;;;;;;20.00;13.07;;;15.60;99.90;;;;;;5071764;28;20199;-61
2022/09/10 03:33:55;;;;;;;22.17;13.30;;;15.60;99.90;;;;;;5071204;28;20314;-61
2022/09/10 03:36:23;;;;;;;26.00;12.77;;;15.60;99.90;;;;;;5067691;28;20206;-61
2022/09/10 03:38:52;;;;;;;21.07;12.83;;;15.60;99.90;;;;;;5072760;28;20195;-61
2022/09/10 03:41:21;;;;;;;19.33;12.70;;;15.60;99.90;;;;;;5084704;28;20199;-61
2022/09/10 03:43:49;;;;;;;26.60;13.97;;;15.60;99.90;;;;;;5080105;28;20193;-61
2022/09/10 03:46:17;;;;;;;26.90;15.00;;;15.60;99.90;;;;;;5063755;28;20197;-61
2022/09/10 03:48:46;;;;;;;24.87;14.20;;;15.60;99.90;;;;;;5076359;28;20213;-61
2022/09/10 03:51:19;;;;;;;31.73;14.97;;;15.60;99.90;;;;;;5070214;28;20199;-61
2022/09/10 03:53:47;;;;;;;25.77;14.47;;;15.60;99.90;;;;;;5062416;28;20244;-61
2022/09/10 03:56:19;;;;;;;25.33;14.67;;;15.60;99.90;;;;;;5076185;28;20216;-61
2022/09/10 03:58:48;;;;;;;27.50;15.73;;;15.60;99.90;;;;;;5076188;28;20184;-61
2022/09/10 04:01:17;;;;;;;24.27;15.63;;;15.50;99.90;;;;;;5071623;28;20199;-61
2022/09/10 04:03:47;;;;;;;28.70;15.83;;;15.50;99.90;;;;;;5073940;28;20550;-61
2022/09/10 04:06:16;;;;;;;24.37;16.87;;;15.60;99.90;;;;;;5071108;28;20715;-61
2022/09/10 04:08:45;;;;;;;31.87;17.97;;;15.60;99.90;;;;;;5075783;28;20666;-61
2022/09/10 04:11:13;;;;;;;31.70;17.57;;;15.60;99.90;;;;;;5075412;28;20229;-61
2022/09/10 04:13:43;;;;;;;28.33;17.70;;;15.60;99.90;;;;;;5070446;28;20189;-60
2022/09/10 04:16:11;;;;;;;29.90;16.90;;;15.60;99.90;;;;;;5065334;28;20193;-61
2022/09/10 04:18:40;;;;;;;26.07;17.40;;;15.60;99.90;;;;;;5073244;28;20203;-61
2022/09/10 04:21:09;;;;;;;27.23;17.37;;;15.60;99.90;;;;;;5073063;28;20548;-61
2022/09/10 04:23:40;;;;;;;30.20;17.47;;;15.60;99.90;;;;;;5071710;28;20201;-61
2022/09/10 04:26:13;;;;;;;27.20;17.67;;;15.60;99.90;;;;;;5069896;28;20200;-61
2022/09/10 04:28:43;;;;;;;28.00;17.33;;;15.60;99.90;;;;;;5058013;28;20211;-60
2022/09/10 04:31:11;;;;;;;27.37;18.00;;;15.60;99.90;;;;;;5073378;28;20200;-61
2022/09/10 04:33:40;;;;;;;29.97;18.17;;;15.60;99.90;;;;;;5067437;28;20197;-61
2022/09/10 04:36:09;;;;;;;31.67;18.83;;;15.60;99.90;;;;;;5069289;28;20653;-61
2022/09/10 04:38:39;;;;;;;36.97;19.47;;;15.60;99.90;;;;;;5062059;28;20201;-61
2022/09/10 04:41:08;;;;;;;30.57;19.00;;;15.60;99.90;;;;;;5060441;28;20204;-61
2022/09/10 04:43:37;;;;;;;32.40;18.83;;;15.60;99.90;;;;;;5072670;28;20643;-61
2022/09/10 04:46:07;;;;;;;31.33;18.57;;;15.60;99.90;;;;;;5075526;28;20199;-61
2022/09/10 04:48:35;;;;;;;31.57;19.30;;;15.60;99.90;;;;;;5075217;28;20283;-61
2022/09/10 04:51:05;;;;;;;32.23;19.50;;;15.50;99.90;;;;;;5075359;28;20221;-61
2022/09/10 04:53:44;;;;;;;30.40;20.33;;;15.50;99.90;;;;;;5067203;28;20280;-61
2022/09/10 04:56:13;;;;;;;36.17;21.20;;;15.50;99.90;;;;;;5075172;28;20211;-61
2022/09/10 04:58:42;;;;;;;33.07;20.50;;;15.50;99.90;;;;;;5069072;28;20218;-61
2022/09/10 05:01:13;;;;;;;31.17;19.80;;;15.50;99.90;;;;;;5074966;28;20195;-61
2022/09/10 05:03:41;;;;;;;31.40;19.70;;;15.50;99.90;;;;;;5074308;28;20678;-61
2022/09/10 05:06:10;;;;;;;37.73;22.10;;;15.60;99.90;;;;;;5074722;28;20672;-61
2022/09/10 05:08:38;;;;;;;35.97;22.03;;;15.60;99.90;;;;;;5071549;28;20201;-61
2022/09/10 05:11:07;;;;;;;33.17;21.60;;;15.60;99.90;;;;;;5075265;28;20704;-61
2022/09/10 05:13:35;;;;;;;31.93;21.93;;;15.60;99.90;;;;;;5068007;28;20193;-61
2022/09/10 05:16:03;;;;;;;38.50;22.17;;;15.70;99.90;;;;;;5069913;28;20218;-61
2022/09/10 05:18:33;;;;;;;35.80;21.33;;;15.70;99.90;;;;;;5074952;28;20227;-61
2022/09/10 05:21:02;;;;;;;38.43;21.53;;;15.70;99.90;;;;;;5074938;28;20590;-61
2022/09/10 05:23:31;;;;;;;34.37;21.30;;;15.80;99.90;;;;;;5059101;28;20201;-61
2022/09/10 05:26:00;;;;;;;34.03;20.97;;;15.80;99.90;;;;;;5072915;28;20647;-61
2022/09/10 05:28:28;;;;;;;35.63;22.40;;;15.80;99.90;;;;;;5057083;28;20196;-61
2022/09/10 05:30:56;;;;;;;35.73;21.80;;;15.80;99.90;;;;;;5074612;28;20209;-61
2022/09/10 05:33:25;;;;;;;30.90;21.03;;;15.80;99.90;;;;;;5067726;28;20531;-61
2022/09/10 05:35:54;;;;;;;36.17;20.90;;;15.80;99.90;;;;;;5070105;28;20208;-61
2022/09/10 05:38:23;;;;;;;36.83;20.83;;;15.80;99.90;;;;;;5064111;28;20200;-61
2022/09/10 05:40:52;;;;;;;39.47;20.83;;;15.80;99.90;;;;;;5040913;28;20189;-61
2022/09/10 05:43:21;;;;;;;29.60;19.87;;;15.90;99.90;;;;;;5068873;28;20197;-61
2022/09/10 05:45:50;;;;;;;31.27;20.47;;;15.90;99.90;;;;;;5072477;28;20190;-61
2022/09/10 05:48:20;;;;;;;40.00;21.93;;;15.90;99.90;;;;;;5070755;28;20188;-61
2022/09/10 05:50:48;;;;;;;32.80;21.33;;;15.90;99.90;;;;;;5072748;28;20304;-61
2022/09/10 05:53:17;;;;;;;31.73;21.07;;;15.90;99.90;;;;;;5074405;28;20220;-61
2022/09/10 05:55:46;;;;;;;34.60;19.67;;;15.90;99.90;;;;;;5073313;28;20234;-61
2022/09/10 05:58:15;;;;;;;30.70;18.97;;;16.00;99.90;;;;;;5107015;28;20197;-61
2022/09/10 06:00:43;;;;;;;30.20;18.20;;;16.00;99.90;;;;;;5073602;28;20275;-61
2022/09/10 06:03:11;;;;;;;27.13;17.60;;;16.00;99.90;;;;;;5072635;28;20201;-61
2022/09/10 06:05:40;;;;;;;33.43;18.63;;;16.00;99.90;;;;;;5074368;28;20656;-61
2022/09/10 06:08:08;;;;;;;25.90;17.43;;;16.10;99.90;;;;;;5074245;28;20193;-61
2022/09/10 06:10:38;;;;;;;31.03;17.73;;;16.10;99.90;;;;;;5074017;28;20290;-61
2022/09/10 06:13:06;;;;;;;25.40;17.00;;;16.10;99.90;;;;;;5069127;28;20636;-61
2022/09/10 06:15:35;;;;;;;28.63;17.17;;;16.00;99.90;;;;;;5073805;28;20197;-61
2022/09/10 06:18:04;;;;;;;23.73;16.13;;;16.00;99.90;;;;;;5072619;28;20199;-61
2022/09/10 06:20:33;;;;;;;26.07;16.33;;;16.10;99.90;;;;;;5073680;28;20191;-61
2022/09/10 06:23:01;;;;;;;25.90;15.97;;;16.10;99.90;;;;;;5061012;28;20194;-61
2022/09/10 06:25:29;;;;;;;24.03;14.73;;;16.10;99.90;;;;;;5067561;28;20655;-61
2022/09/10 06:28:00;;;;;;;27.20;15.20;;;16.10;99.90;;;;;;5075571;28;20196;-61
2022/09/10 06:30:28;;;;;;;19.70;14.30;;;16.10;99.90;;;;;;5073300;28;20218;-61
2022/09/10 06:32:57;;;;;;;19.80;14.43;;;16.10;99.90;;;;;;5074335;28;20208;-61
2022/09/10 06:35:25;;;;;;;24.97;14.40;;;16.10;99.90;;;;;;5056470;28;20213;-61
2022/09/10 06:37:54;;;;;;;22.10;15.73;;;16.10;99.90;;;;;;5057838;28;20198;-61
2022/09/10 06:40:25;;;;;;;24.37;14.70;;;16.10;99.90;;;;;;5056223;28;20206;-61
2022/09/10 06:42:54;;;;;;;23.53;14.93;;;16.10;99.90;;;;;;5067896;28;20198;-61
2022/09/10 06:45:23;;;;;;;27.63;16.37;;;16.10;99.90;;;;;;5071864;28;20209;-61
2022/09/10 06:47:52;;;;;;;27.93;15.60;;;16.20;99.90;;;;;;5063803;28;20189;-61
2022/09/10 06:50:50;;;;;;;27.37;16.07;;;16.10;99.90;;;;;;5068602;28;20220;-61
2022/09/10 06:53:20;;;;;;;27.87;15.67;;;16.20;99.90;;;;;;5072312;28;20212;-61
2022/09/10 06:55:49;;;;;;;28.27;15.90;;;16.10;99.90;;;;;;5073780;28;20289;-61
2022/09/10 06:58:18;;;;;;;25.27;14.03;;;16.20;99.90;;;;;;5073324;28;20557;-61
2022/09/10 07:00:49;;;;;;;23.97;15.00;;;16.20;99.90;;;;;;5064336;28;20186;-61
2022/09/10 07:03:19;;;;;;;23.43;15.47;;;16.30;99.90;;;;;;5073323;28;20201;-61
2022/09/10 07:05:49;;;;;;;25.60;15.33;;;16.30;99.90;;;;;;5073233;28;20240;-60
2022/09/10 07:08:21;;;;;;;26.30;15.03;;;16.40;99.90;;;;;;5071625;28;20202;-61
2022/09/10 07:10:50;;;;;;;25.20;15.10;;;16.50;99.90;;;;;;5066397;28;20325;-61
2022/09/10 07:13:18;;;;;;;25.67;14.97;;;16.60;99.90;;;;;;5072530;28;20271;-61
2022/09/10 07:15:48;;;;;;;21.07;15.13;;;16.60;99.90;;;;;;5073611;28;20209;-61
2022/09/10 07:18:17;;;;;;;23.07;16.37;;;16.60;99.90;;;;;;5068890;28;20203;-61
2022/09/10 07:20:46;;;;;;;27.03;16.67;;;16.70;99.90;;;;;;5078490;28;20187;-61
2022/09/10 07:23:17;;;;;;;30.03;16.17;;;16.70;99.90;;;;;;5093496;28;20188;-61
2022/09/10 07:25:46;;;;;;;22.53;14.73;;;16.80;99.90;;;;;;5088735;28;20233;-60
2022/09/10 07:28:16;;;;;;;21.90;15.60;;;16.90;99.90;;;;;;5058039;28;20210;-61
2022/09/10 07:30:46;;;;;;;31.80;16.00;;;16.80;99.90;;;;;;5072827;28;20208;-61
2022/09/10 07:33:15;;;;;;;25.27;16.33;;;16.80;99.90;;;;;;5064241;28;20211;-61
2022/09/10 07:35:44;;;;;;;29.30;16.73;;;16.80;99.90;;;;;;5069497;28;20733;-61
2022/09/10 07:38:15;;;;;;;26.73;16.97;;;16.80;99.90;;;;;;5071840;28;20274;-61
2022/09/10 07:40:44;;;;;;;21.17;16.83;;;16.70;99.90;;;;;;5060054;28;20199;-61
2022/09/10 07:43:12;;;;;;;25.20;17.43;;;16.70;99.90;;;;;;5053146;28;20558;-61
2022/09/10 07:45:41;;;;;;;23.10;16.70;;;16.80;99.90;;;;;;5053012;28;20189;-61
2022/09/10 07:48:12;;;;;;;28.90;18.03;;;16.80;99.90;;;;;;5058345;28;20207;-61
2022/09/10 07:50:41;;;;;;;25.67;17.90;;;16.80;99.90;;;;;;5073195;28;20216;-61
2022/09/10 07:53:10;;;;;;;29.60;18.17;;;16.90;99.90;;;;;;5072966;28;20192;-61
2022/09/10 07:55:38;;;;;;;28.30;17.03;;;17.10;99.90;;;;;;5073229;28;20192;-61
2022/09/10 07:58:06;;;;;;;23.93;17.50;;;17.10;99.90;;;;;;5072789;28;20215;-61
2022/09/10 08:00:35;;;;;;;25.87;17.87;;;17.20;99.90;;;;;;5053000;28;20217;-61
2022/09/10 08:03:03;;;;;;;34.13;18.27;;;17.30;99.90;;;;;;5060264;28;20192;-61
2022/09/10 08:05:32;;;;;;;26.43;16.63;;;17.50;99.90;;;;;;5071710;28;20202;-61
2022/09/10 08:08:02;;;;;;;25.00;18.13;;;17.50;99.90;;;;;;5071091;28;20662;-61
2022/09/10 08:10:30;;;;;;;23.00;16.10;;;17.60;99.90;;;;;;5055502;28;20235;-61
2022/09/10 08:12:58;;;;;;;25.87;16.73;;;17.60;99.90;;;;;;5058419;28;20568;-61
2022/09/10 08:15:27;;;;;;;23.27;16.47;;;17.60;99.90;;;;;;5070229;28;20511;-61
2022/09/10 08:17:55;;;;;;;27.67;16.13;;;17.70;99.90;;;;;;5076746;28;20230;-61
2022/09/10 08:20:25;;;;;;;21.87;15.50;;;17.80;99.90;;;;;;5061570;28;20524;-61
2022/09/10 08:22:56;;;;;;;24.17;14.93;;;17.90;99.90;;;;;;5059985;28;20193;-62
2022/09/10 08:25:25;;;;;;;23.13;14.37;;;18.10;99.90;;;;;;5052854;28;20193;-62
2022/09/10 08:27:54;;;;;;;18.80;13.70;;;18.30;99.90;;;;;;5064068;28;20196;-62
2022/09/10 08:30:22;;;;;;;21.47;13.67;;;18.50;99.90;;;;;;5075909;28;20199;-61
2022/09/10 08:32:50;;;;;;;19.67;13.20;;;18.60;99.90;;;;;;5075881;28;20220;-61
2022/09/10 08:35:19;;;;;;;16.50;11.63;;;18.80;99.90;;;;;;5066071;28;20291;-61
2022/09/10 08:37:47;;;;;;;20.90;12.33;;;18.80;99.90;;;;;;5064812;28;20192;-61
2022/09/10 08:40:17;;;;;;;19.47;11.57;;;18.70;99.90;;;;;;5070963;28;20229;-61
2022/09/10 08:42:49;;;;;;;16.27;12.10;;;18.50;99.90;;;;;;5061896;28;20189;-61
2022/09/10 08:45:22;;;;;;;21.90;12.00;;;18.50;99.90;;;;;;5063913;28;20200;-61
2022/09/10 08:47:58;;;;;;;21.07;12.33;;;18.60;99.90;;;;;;5075401;28;20199;-61
2022/09/10 08:50:37;;;;;;;18.23;11.77;;;18.60;99.90;;;;;;5075713;28;20200;-61
2022/09/10 08:53:21;;;;;;;18.30;11.33;;;18.70;99.90;;;;;;5066730;28;20858;-61
2022/09/10 08:55:50;;;;;;;17.83;11.17;;;18.80;99.90;;;;;;5060179;28;20665;-61
2022/09/10 08:58:25;;;;;;;14.40;10.73;;;19.00;99.90;;;;;;5075447;28;20195;-61
2022/09/10 09:00:57;;;;;;;12.03;9.47;;;19.00;99.90;;;;;;5075260;28;20200;-61
2022/09/10 09:03:31;;;;;;;12.20;8.87;;;19.10;99.90;;;;;;5054301;28;20215;-62
2022/09/10 09:06:02;;;;;;;11.90;8.17;;;19.20;99.90;;;;;;5075251;28;20271;-61
2022/09/10 09:08:34;;;;;;;15.13;8.33;;;19.40;99.90;;;;;;5062182;28;20219;-61
2022/09/10 09:11:11;;;;;;;9.43;7.73;;;19.30;99.90;;;;;;5075311;28;20314;-61
2022/09/10 09:14:12;;;;;;;11.83;8.23;;;19.30;99.90;;;;;;5057302;28;20195;-61
2022/09/10 09:17:05;;;;;;;11.43;8.27;;;19.30;99.90;;;;;;5071636;28;20561;-61
2022/09/10 09:19:37;;;;;;;10.63;8.20;;;19.10;99.90;;;;;;5075296;28;20188;-61
2022/09/10 09:22:16;;;;;;;16.97;8.50;;;19.10;99.90;;;;;;5075407;28;20302;-61
2022/09/10 09:24:54;;;;;;;17.63;9.17;;;19.10;99.90;;;;;;5075035;28;20191;-61
2022/09/10 09:27:26;;;;;;;11.53;8.83;;;19.10;99.90;;;;;;5071522;28;20192;-61
2022/09/10 09:30:00;;;;;;;15.90;8.87;;;19.10;99.90;;;;;;5062314;28;20203;-61
2022/09/10 09:32:33;;;;;;;12.30;9.10;;;19.10;99.90;;;;;;5060755;28;20209;-62
2022/09/10 09:35:22;;;;;;;14.07;8.83;;;19.20;99.90;;;;;;5074838;28;20223;-61
2022/09/10 09:37:55;;;;;;;8.73;7.67;;;19.30;99.90;;;;;;5074658;28;20192;-61
2022/09/10 09:40:29;;;;;;;10.37;8.77;;;19.60;99.90;;;;;;5069060;28;20197;-61
2022/09/10 09:43:03;;;;;;;13.63;8.33;;;19.80;99.90;;;;;;5054790;28;20192;-61
2022/09/10 09:45:36;;;;;;;17.87;8.50;;;20.20;99.90;;;;;;5054675;28;20200;-63
2022/09/10 09:48:09;;;;;;;9.17;7.70;;;20.40;99.90;;;;;;5054743;28;20588;-64
2022/09/10 09:50:41;;;;;;;9.23;6.97;;;20.60;99.90;;;;;;5054827;28;20200;-63
2022/09/10 09:53:17;;;;;;;10.70;6.80;;;20.60;99.90;;;;;;5054763;28;20208;-63
2022/09/10 09:55:48;;;;;;;8.97;6.50;;;20.40;99.90;;;;;;5054647;28;20189;-63
2022/09/10 09:58:34;;;;;;;10.90;6.37;;;20.20;99.90;;;;;;5072492;28;20219;-63
2022/09/10 10:01:22;;;;;;;11.70;5.90;;;20.10;99.90;;;;;;5074616;28;20538;-63
2022/09/10 10:04:32;;;;;;;8.00;6.17;;;20.20;99.90;;;;;;5075447;28;20247;-63
2022/09/10 10:07:03;;;;;;;12.43;5.23;;;20.30;99.90;;;;;;5074037;28;20529;-63
2022/09/10 10:09:33;;;;;;;6.03;5.07;;;20.20;99.90;;;;;;5074503;28;20236;-63
2022/09/10 10:12:04;;;;;;;7.03;4.97;;;20.20;99.90;;;;;;5074221;28;20213;-64
2022/09/10 10:14:40;;;;;;;5.07;4.63;;;20.30;99.90;;;;;;5073120;28;20290;-64
2022/09/10 10:17:33;;;;;;;6.43;4.43;;;20.40;99.90;;;;;;5056468;28;20191;-63
2022/09/10 10:20:09;;;;;;;9.50;4.30;;;20.40;99.90;;;;;;5074316;28;20206;-63
2022/09/10 10:22:39;;;;;;;6.23;3.50;;;20.40;99.90;;;;;;5074276;28;20186;-63
2022/09/10 10:25:41;;;;;;;4.90;3.80;;;20.50;99.90;;;;;;5074327;28;20192;-63
2022/09/10 10:28:23;;;;;;;10.93;4.17;;;20.40;99.90;;;;;;5074315;28;20658;-63
2022/09/10 10:30:53;;;;;;;6.80;4.37;;;20.30;99.90;;;;;;5073893;28;20673;-62
2022/09/10 10:33:27;;;;;;;6.77;4.90;;;20.10;99.90;;;;;;5074558;28;20216;-62
2022/09/10 10:36:05;;;;;;;5.90;4.60;;;20.20;99.90;;;;;;5072992;28;20673;-62
2022/09/10 10:38:36;;;;;;;6.93;5.03;;;20.30;99.90;;;;;;5072583;28;20200;-63
2022/09/10 10:41:35;;;;;;;8.90;5.10;;;20.30;99.90;;;;;;5073810;28;20195;-64
2022/09/10 10:44:16;;;;;;;10.03;4.23;;;20.60;99.90;;;;;;5068247;28;20205;-64
2022/09/10 10:46:54;;;;;;;10.77;4.80;;;21.20;99.90;;;;;;5071043;28;20192;-63
2022/09/10 10:49:36;;;;;;;10.10;5.03;;;21.30;99.90;;;;;;5073509;28;20192;-63
2022/09/10 10:52:11;;;;;;;9.83;5.33;;;21.80;99.90;;;;;;5071501;28;20199;-64
2022/09/10 10:54:52;;;;;;;10.47;4.73;;;22.40;99.90;;;;;;5069716;28;20195;-63
2022/09/10 10:57:30;;;;;;;8.70;4.73;;;22.80;99.90;;;;;;5073629;28;20219;-63
2022/09/10 11:00:03;;;;;;;6.70;4.80;;;23.00;99.90;;;;;;5061284;28;20214;-63
2022/09/10 11:02:40;;;;;;;6.50;4.33;;;23.00;99.90;;;;;;5074953;28;20199;-63
2022/09/10 11:05:20;;;;;;;4.80;3.27;;;23.60;99.90;;;;;;5084616;28;20195;-63
2022/09/10 11:07:48;;;;;;;4.67;2.90;;;23.60;99.90;;;;;;5073290;28;20192;-63
2022/09/10 11:10:22;;;;;;;6.00;3.83;;;23.70;99.90;;;;;;5072931;28;20302;-63
2022/09/10 11:13:03;;;;;;;8.90;3.60;;;23.20;99.90;;;;;;5072803;28;20220;-63
2022/09/10 11:15:36;;;;;;;5.60;3.70;;;23.00;99.90;;;;;;5071523;28;20191;-63
2022/09/10 11:18:13;;;;;;;5.70;3.27;;;22.80;99.90;;;;;;5074692;28;20203;-62
2022/09/10 11:20:49;;;;;;;5.30;2.77;;;22.50;99.90;;;;;;5071812;28;20591;-62
2022/09/10 11:23:26;;;;;;;4.67;2.83;;;22.20;99.90;;;;;;5070383;28;20187;-63
2022/09/10 11:26:01;;;;;;;5.67;3.17;;;21.90;99.90;;;;;;5060833;28;20279;-63
2022/09/10 11:28:53;;;;;;;4.43;3.00;;;21.70;99.90;;;;;;5097631;28;20204;-63
2022/09/10 11:31:53;;;;;;;3.87;2.67;;;21.50;99.90;;;;;;5066340;28;20513;-63
2022/09/10 11:35:02;;;;;;;3.73;2.70;;;21.60;99.90;;;;;;5055664;28;20209;-64
2022/09/10 11:37:51;;;;;;;5.20;2.60;;;21.80;99.90;;;;;;5067360;28;20571;-63
2022/09/10 11:40:42;;;;;;;5.50;2.57;;;21.90;99.90;;;;;;5071129;28;20197;-63
2022/09/10 11:43:18;;;;;;;4.33;2.90;;;22.00;99.90;;;;;;5057920;28;20196;-63
2022/09/10 11:45:52;;;;;;;6.53;2.43;;;21.80;99.90;;;;;;5076907;28;20201;-63
2022/09/10 11:48:30;;;;;;;4.30;2.70;;;21.60;99.90;;;;;;5077392;28;20196;-62
2022/09/10 11:51:40;;;;;;;4.93;2.70;;;21.50;99.90;;;;;;5062504;28;20189;-63
2022/09/10 11:54:18;;;;;;;5.70;2.53;;;21.40;99.90;;;;;;5051289;28;20208;-63
2022/09/10 12:00:57;;;;;;;4.57;2.50;;;21.80;99.90;;;;;;5056083;28;20176;-63
2022/09/10 12:04:00;;;;;;;3.60;2.20;;;22.00;99.90;;;;;;5104580;28;20196;-64
2022/09/10 12:07:07;;;;;;;2.67;2.43;;;22.70;99.90;;;;;;5063002;28;20218;-63
2022/09/10 12:09:45;;;;;;;3.13;2.20;;;22.60;99.90;;;;;;5062650;28;20241;-63
2022/09/10 12:12:21;;;;;;;3.67;2.30;;;22.60;99.90;;;;;;5074688;28;20193;-63
2022/09/10 12:14:50;;;;;;;3.60;2.03;;;22.40;99.90;;;;;;5078801;28;20675;-64
2022/09/10 12:17:57;;;;;;;2.97;2.20;;;22.70;99.90;;;;;;5086326;28;20214;-64
2022/09/10 12:20:31;;;;;;;4.20;2.27;;;23.10;99.90;;;;;;5074500;28;20194;-63
2022/09/10 12:23:38;;;;;;;3.63;2.17;;;23.50;99.90;;;;;;5071941;28;20194;-63
2022/09/10 12:26:40;;;;;;;4.93;2.30;;;23.60;99.90;;;;;;5075453;28;20209;-63
2022/09/10 12:29:49;;;;;;;4.67;2.57;;;23.70;99.90;;;;;;5075007;28;20631;-63
2022/09/10 12:32:29;;;;;;;3.17;2.40;;;23.10;99.90;;;;;;5107652;28;20199;-63
2022/09/10 12:35:39;;;;;;;6.80;2.70;;;22.60;99.90;;;;;;5072272;28;20213;-63
2022/09/10 12:38:54;;;;;;;7.33;2.70;;;22.10;99.90;;;;;;5054364;28;20187;-63
2022/09/10 12:42:03;;;;;;;7.97;2.83;;;21.70;99.90;;;;;;5069795;28;20206;-63
2022/09/10 12:44:51;;;;;;;4.57;2.90;;;21.40;99.90;;;;;;5065815;28;20539;-63
2022/09/10 12:47:45;;;;;;;6.57;3.07;;;21.10;99.90;;;;;;5065550;28;20188;-62
2022/09/10 12:50:35;;;;;;;4.60;2.93;;;20.90;99.90;;;;;;5099341;28;20195;-62
2022/09/10 12:53:42;;;;;;;4.20;3.20;;;20.80;99.90;;;;;;5066306;28;20791;-63
2022/09/10 12:56:29;;;;;;;4.80;3.17;;;20.70;99.90;;;;;;5073096;28;20201;-62
2022/09/10 12:59:09;;;;;;;4.03;3.10;;;20.70;99.90;;;;;;5062892;28;20192;-63
2022/09/10 13:01:41;;;;;;;3.47;3.17;;;20.80;99.90;;;;;;5083177;28;20714;-63
2022/09/10 13:04:27;;;;;;;4.10;3.10;;;20.90;99.90;;;;;;5060408;28;20189;-62
2022/09/10 13:07:01;;;;;;;8.60;3.80;;;21.20;99.90;;;;;;5060822;28;20289;-62
2022/09/10 13:09:33;;;;;;;3.10;2.93;;;21.50;99.90;;;;;;5064584;28;20228;-63
2022/09/10 13:12:17;;;;;;;5.47;3.07;;;21.50;99.90;;;;;;5064340;28;20199;-62
2022/09/10 13:14:47;;;;;;;7.20;3.10;;;21.50;99.90;;;;;;5067824;28;20232;-62